Terminal Aerodrome Forecast
Issued by NWS

Home | Current Version | Previous Version | Text Only | Print | Product List | Glossary On
Versions: 1 2 3 4 5 6 7 8 9 10 11 12
000
FTUS42 KMLB 122300
TAFSUA
TAF
KSUA 122323Z 1300/1324 10006KT P6SM FEW025 BKN250
     FM130300 11004KT P6SM VCSH FEW020 SCT250
     FM131300 12006KT P6SM VCSH SCT025 SCT250
     FM131600 10008KT P6SM VCTS SCT030CB BKN250
      AMD NOT SKED 1300/1311=

USA.gov is the U.S. government's official web portal to all federal, state and local government web resources and services.